sensor_id;sensor_type;location;lat;lon;timestamp;temperature;humidity
20650;DHT22;10484;48.736;9.332;2023-04-16T00:02:18;8.90;1.00
20650;DHT22;10484;48.736;9.332;2023-04-16T00:04:44;8.90;1.00
20650;DHT22;10484;48.736;9.332;2023-04-16T00:07:09;8.90;1.00
20650;DHT22;10484;48.736;9.332;2023-04-16T00:09:35;8.80;1.00
20650;DHT22;10484;48.736;9.332;2023-04-16T00:12:00;8.80;1.00
20650;DHT22;10484;48.736;9.332;2023-04-16T00:14:26;8.90;1.00
20650;DHT22;10484;48.736;9.332;2023-04-16T00:16:52;8.80;1.00
20650;DHT22;10484;48.736;9.332;2023-04-16T00:19:17;8.90;1.00
20650;DHT22;10484;48.736;9.332;2023-04-16T00:21:43;8.80;1.00
20650;DHT22;10484;48.736;9.332;2023-04-16T00:24:08;8.80;1.00
20650;DHT22;10484;48.736;9.332;2023-04-16T00:26:34;8.90;1.00
20650;DHT22;10484;48.736;9.332;2023-04-16T00:29:00;8.80;1.00
20650;DHT22;10484;48.736;9.332;2023-04-16T00:31:30;8.80;1.00
20650;DHT22;10484;48.736;9.332;2023-04-16T00:33:56;8.90;1.00
20650;DHT22;10484;48.736;9.332;2023-04-16T00:36:22;8.90;1.00
20650;DHT22;10484;48.736;9.332;2023-04-16T00:38:48;8.80;1.00
20650;DHT22;10484;48.736;9.332;2023-04-16T00:41:14;8.80;1.00
20650;DHT22;10484;48.736;9.332;2023-04-16T00:43:39;8.80;1.00
20650;DHT22;10484;48.736;9.332;2023-04-16T00:46:05;8.80;1.00
20650;DHT22;10484;48.736;9.332;2023-04-16T00:48:32;8.80;1.00
20650;DHT22;10484;48.736;9.332;2023-04-16T00:50:58;8.80;1.00
20650;DHT22;10484;48.736;9.332;2023-04-16T00:53:26;8.80;1.00
20650;DHT22;10484;48.736;9.332;2023-04-16T00:55:52;8.80;1.00
20650;DHT22;10484;48.736;9.332;2023-04-16T00:58:20;8.80;1.00
20650;DHT22;10484;48.736;9.332;2023-04-16T01:00:46;8.80;1.00
20650;DHT22;10484;48.736;9.332;2023-04-16T01:03:11;8.80;1.00
20650;DHT22;10484;48.736;9.332;2023-04-16T01:05:37;8.80;1.00
20650;DHT22;10484;48.736;9.332;2023-04-16T01:08:03;8.80;1.00
20650;DHT22;10484;48.736;9.332;2023-04-16T01:10:29;8.80;1.00
20650;DHT22;10484;48.736;9.332;2023-04-16T01:12:55;8.80;1.00
20650;DHT22;10484;48.736;9.332;2023-04-16T01:15:20;8.80;1.00
20650;DHT22;10484;48.736;9.332;2023-04-16T01:17:46;8.80;1.00
20650;DHT22;10484;48.736;9.332;2023-04-16T01:20:11;8.70;1.00
20650;DHT22;10484;48.736;9.332;2023-04-16T01:22:37;8.70;1.00
20650;DHT22;10484;48.736;9.332;2023-04-16T01:25:03;8.80;1.00
20650;DHT22;10484;48.736;9.332;2023-04-16T01:27:28;8.80;1.00
20650;DHT22;10484;48.736;9.332;2023-04-16T01:29:55;8.70;1.00
20650;DHT22;10484;48.736;9.332;2023-04-16T01:32:21;8.70;1.00
20650;DHT22;10484;48.736;9.332;2023-04-16T01:34:46;8.70;1.00
20650;DHT22;10484;48.736;9.332;2023-04-16T01:37:12;8.70;1.00
20650;DHT22;10484;48.736;9.332;2023-04-16T01:39:38;8.70;1.00
20650;DHT22;10484;48.736;9.332;2023-04-16T01:42:03;8.70;1.00
20650;DHT22;10484;48.736;9.332;2023-04-16T01:44:29;8.70;1.00
20650;DHT22;10484;48.736;9.332;2023-04-16T01:46:55;8.70;1.00
20650;DHT22;10484;48.736;9.332;2023-04-16T01:49:21;8.70;1.00
20650;DHT22;10484;48.736;9.332;2023-04-16T01:51:47;8.80;1.00
20650;DHT22;10484;48.736;9.332;2023-04-16T01:54:12;8.70;1.00
20650;DHT22;10484;48.736;9.332;2023-04-16T01:56:38;8.80;1.00
20650;DHT22;10484;48.736;9.332;2023-04-16T01:59:03;8.70;1.00
20650;DHT22;10484;48.736;9.332;2023-04-16T02:01:29;8.70;1.00
20650;DHT22;10484;48.736;9.332;2023-04-16T02:03:56;8.80;1.00
20650;DHT22;10484;48.736;9.332;2023-04-16T02:06:22;8.80;1.00
20650;DHT22;10484;48.736;9.332;2023-04-16T02:08:47;8.80;1.00
20650;DHT22;10484;48.736;9.332;2023-04-16T02:11:13;8.80;1.00
20650;DHT22;10484;48.736;9.332;2023-04-16T02:13:39;8.70;1.00
20650;DHT22;10484;48.736;9.332;2023-04-16T02:16:05;8.70;1.00
20650;DHT22;10484;48.736;9.332;2023-04-16T02:18:30;8.80;1.00
20650;DHT22;10484;48.736;9.332;2023-04-16T02:20:57;8.70;1.00
20650;DHT22;10484;48.736;9.332;2023-04-16T02:23:24;8.70;1.00
20650;DHT22;10484;48.736;9.332;2023-04-16T02:25:49;8.70;1.00
20650;DHT22;10484;48.736;9.332;2023-04-16T02:28:16;8.70;1.00
20650;DHT22;10484;48.736;9.332;2023-04-16T02:30:42;8.70;1.00
20650;DHT22;10484;48.736;9.332;2023-04-16T02:33:09;8.80;1.00
20650;DHT22;10484;48.736;9.332;2023-04-16T02:35:36;8.70;1.00
20650;DHT22;10484;48.736;9.332;2023-04-16T02:38:03;8.70;1.00
20650;DHT22;10484;48.736;9.332;2023-04-16T02:40:29;8.70;1.00
20650;DHT22;10484;48.736;9.332;2023-04-16T02:42:55;8.70;1.00
20650;DHT22;10484;48.736;9.332;2023-04-16T02:45:22;8.70;1.00
20650;DHT22;10484;48.736;9.332;2023-04-16T02:47:48;8.70;1.00
20650;DHT22;10484;48.736;9.332;2023-04-16T02:50:14;8.80;1.00
20650;DHT22;10484;48.736;9.332;2023-04-16T02:52:40;8.70;1.00
20650;DHT22;10484;48.736;9.332;2023-04-16T02:55:06;8.70;1.00
20650;DHT22;10484;48.736;9.332;2023-04-16T02:57:32;8.70;1.00
20650;DHT22;10484;48.736;9.332;2023-04-16T02:59:58;8.70;1.00
20650;DHT22;10484;48.736;9.332;2023-04-16T03:02:23;8.70;1.00
20650;DHT22;10484;48.736;9.332;2023-04-16T03:04:49;8.70;1.00
20650;DHT22;10484;48.736;9.332;2023-04-16T03:07:14;8.70;1.00
20650;DHT22;10484;48.736;9.332;2023-04-16T03:09:41;8.70;1.00
20650;DHT22;10484;48.736;9.332;2023-04-16T03:12:07;8.70;1.00
20650;DHT22;10484;48.736;9.332;2023-04-16T03:14:32;8.70;1.00
20650;DHT22;10484;48.736;9.332;2023-04-16T03:16:58;8.70;1.00
20650;DHT22;10484;48.736;9.332;2023-04-16T03:19:23;8.70;1.00
20650;DHT22;10484;48.736;9.332;2023-04-16T03:21:50;8.70;1.00
20650;DHT22;10484;48.736;9.332;2023-04-16T03:24:15;8.70;1.00
20650;DHT22;10484;48.736;9.332;2023-04-16T03:26:41;8.70;1.00
20650;DHT22;10484;48.736;9.332;2023-04-16T03:29:06;8.70;1.00
20650;DHT22;10484;48.736;9.332;2023-04-16T03:31:32;8.70;1.00
20650;DHT22;10484;48.736;9.332;2023-04-16T03:33:57;8.70;1.00
20650;DHT22;10484;48.736;9.332;2023-04-16T03:36:23;8.60;1.00
20650;DHT22;10484;48.736;9.332;2023-04-16T03:38:49;8.60;1.00
20650;DHT22;10484;48.736;9.332;2023-04-16T03:41:15;8.60;1.00
20650;DHT22;10484;48.736;9.332;2023-04-16T03:43:40;8.60;1.00
20650;DHT22;10484;48.736;9.332;2023-04-16T03:46:06;8.60;1.00
20650;DHT22;10484;48.736;9.332;2023-04-16T03:48:31;8.60;1.00
20650;DHT22;10484;48.736;9.332;2023-04-16T03:50:57;8.60;1.00
20650;DHT22;10484;48.736;9.332;2023-04-16T03:53:23;8.60;1.00
20650;DHT22;10484;48.736;9.332;2023-04-16T03:55:49;8.60;1.00
20650;DHT22;10484;48.736;9.332;2023-04-16T03:58:18;8.60;1.00
20650;DHT22;10484;48.736;9.332;2023-04-16T04:00:44;8.50;1.00
20650;DHT22;10484;48.736;9.332;2023-04-16T04:03:10;8.60;1.00
20650;DHT22;10484;48.736;9.332;2023-04-16T04:05:39;8.50;1.00
20650;DHT22;10484;48.736;9.332;2023-04-16T04:08:05;8.50;1.00
20650;DHT22;10484;48.736;9.332;2023-04-16T04:10:34;8.50;1.00
20650;DHT22;10484;48.736;9.332;2023-04-16T04:13:02;8.50;1.00
20650;DHT22;10484;48.736;9.332;2023-04-16T04:15:28;8.50;1.00
20650;DHT22;10484;48.736;9.332;2023-04-16T04:17:53;8.60;1.00
20650;DHT22;10484;48.736;9.332;2023-04-16T04:20:19;8.50;1.00
20650;DHT22;10484;48.736;9.332;2023-04-16T04:22:45;8.50;1.00
20650;DHT22;10484;48.736;9.332;2023-04-16T04:25:11;8.60;1.00
20650;DHT22;10484;48.736;9.332;2023-04-16T04:27:36;8.50;1.00
20650;DHT22;10484;48.736;9.332;2023-04-16T04:30:03;8.60;1.00
20650;DHT22;10484;48.736;9.332;2023-04-16T04:32:29;8.60;1.00
20650;DHT22;10484;48.736;9.332;2023-04-16T04:34:55;8.50;1.00
20650;DHT22;10484;48.736;9.332;2023-04-16T04:37:21;8.50;1.00
20650;DHT22;10484;48.736;9.332;2023-04-16T04:39:46;8.50;1.00
20650;DHT22;10484;48.736;9.332;2023-04-16T04:42:12;8.50;1.00
20650;DHT22;10484;48.736;9.332;2023-04-16T04:44:38;8.50;1.00
20650;DHT22;10484;48.736;9.332;2023-04-16T04:47:03;8.50;1.00
20650;DHT22;10484;48.736;9.332;2023-04-16T04:49:29;8.50;1.00
20650;DHT22;10484;48.736;9.332;2023-04-16T04:51:55;8.50;1.00
20650;DHT22;10484;48.736;9.332;2023-04-16T04:54:21;8.50;1.00
20650;DHT22;10484;48.736;9.332;2023-04-16T04:56:46;8.50;1.00
20650;DHT22;10484;48.736;9.332;2023-04-16T04:59:12;8.50;1.00
20650;DHT22;10484;48.736;9.332;2023-04-16T05:01:38;8.50;1.00
20650;DHT22;10484;48.736;9.332;2023-04-16T05:04:03;8.50;1.00
20650;DHT22;10484;48.736;9.332;2023-04-16T05:06:29;8.50;1.00
20650;DHT22;10484;48.736;9.332;2023-04-16T05:08:55;8.50;1.00
20650;DHT22;10484;48.736;9.332;2023-04-16T05:11:21;8.50;1.00
20650;DHT22;10484;48.736;9.332;2023-04-16T05:13:46;8.50;1.00
20650;DHT22;10484;48.736;9.332;2023-04-16T05:16:12;8.50;1.00
20650;DHT22;10484;48.736;9.332;2023-04-16T05:18:37;8.40;1.00
20650;DHT22;10484;48.736;9.332;2023-04-16T05:21:03;8.50;1.00
20650;DHT22;10484;48.736;9.332;2023-04-16T05:23:29;8.40;1.00
20650;DHT22;10484;48.736;9.332;2023-04-16T05:25:54;8.40;1.00
20650;DHT22;10484;48.736;9.332;2023-04-16T05:28:20;8.40;1.00
20650;DHT22;10484;48.736;9.332;2023-04-16T05:30:45;8.40;1.00
20650;DHT22;10484;48.736;9.332;2023-04-16T05:33:11;8.50;1.00
20650;DHT22;10484;48.736;9.332;2023-04-16T05:35:37;8.50;1.00
20650;DHT22;10484;48.736;9.332;2023-04-16T05:38:02;8.50;1.00
20650;DHT22;10484;48.736;9.332;2023-04-16T05:40:30;8.50;1.00
20650;DHT22;10484;48.736;9.332;2023-04-16T05:42:55;8.40;1.00
20650;DHT22;10484;48.736;9.332;2023-04-16T05:45:21;8.50;1.00
20650;DHT22;10484;48.736;9.332;2023-04-16T05:47:46;8.40;1.00
20650;DHT22;10484;48.736;9.332;2023-04-16T05:50:12;8.40;1.00
20650;DHT22;10484;48.736;9.332;2023-04-16T05:52:38;8.40;1.00
20650;DHT22;10484;48.736;9.332;2023-04-16T05:55:04;8.40;1.00
20650;DHT22;10484;48.736;9.332;2023-04-16T05:57:31;8.50;1.00
20650;DHT22;10484;48.736;9.332;2023-04-16T05:59:57;8.40;1.00
20650;DHT22;10484;48.736;9.332;2023-04-16T06:02:22;8.40;1.00
20650;DHT22;10484;48.736;9.332;2023-04-16T06:04:48;8.40;1.00
20650;DHT22;10484;48.736;9.332;2023-04-16T06:07:14;8.50;1.00
20650;DHT22;10484;48.736;9.332;2023-04-16T06:09:40;8.50;1.00
20650;DHT22;10484;48.736;9.332;2023-04-16T06:12:06;8.50;1.00
20650;DHT22;10484;48.736;9.332;2023-04-16T06:14:31;8.50;1.00
20650;DHT22;10484;48.736;9.332;2023-04-16T06:16:57;8.50;1.00
20650;DHT22;10484;48.736;9.332;2023-04-16T06:19:22;8.40;1.00
20650;DHT22;10484;48.736;9.332;2023-04-16T06:21:48;8.50;1.00
20650;DHT22;10484;48.736;9.332;2023-04-16T06:24:13;8.50;1.00
20650;DHT22;10484;48.736;9.332;2023-04-16T06:26:39;8.50;1.00
20650;DHT22;10484;48.736;9.332;2023-04-16T06:29:05;8.50;1.00
20650;DHT22;10484;48.736;9.332;2023-04-16T06:31:30;8.50;1.00
20650;DHT22;10484;48.736;9.332;2023-04-16T06:33:56;8.50;1.00
20650;DHT22;10484;48.736;9.332;2023-04-16T06:36:21;8.50;1.00
20650;DHT22;10484;48.736;9.332;2023-04-16T06:38:47;8.50;1.00
20650;DHT22;10484;48.736;9.332;2023-04-16T06:41:13;8.50;1.00
20650;DHT22;10484;48.736;9.332;2023-04-16T06:43:39;8.50;1.00
20650;DHT22;10484;48.736;9.332;2023-04-16T06:46:04;8.60;1.00
20650;DHT22;10484;48.736;9.332;2023-04-16T06:48:30;8.60;1.00
20650;DHT22;10484;48.736;9.332;2023-04-16T06:50:56;8.50;1.00
20650;DHT22;10484;48.736;9.332;2023-04-16T06:53:22;8.50;1.00
20650;DHT22;10484;48.736;9.332;2023-04-16T06:55:49;8.50;1.00
20650;DHT22;10484;48.736;9.332;2023-04-16T06:58:14;8.50;1.00
20650;DHT22;10484;48.736;9.332;2023-04-16T07:00:40;8.50;1.00
20650;DHT22;10484;48.736;9.332;2023-04-16T07:03:05;8.50;1.00
20650;DHT22;10484;48.736;9.332;2023-04-16T07:05:31;8.50;1.00
20650;DHT22;10484;48.736;9.332;2023-04-16T07:07:57;8.50;1.00
20650;DHT22;10484;48.736;9.332;2023-04-16T07:10:23;8.60;1.00
20650;DHT22;10484;48.736;9.332;2023-04-16T07:12:49;8.60;1.00
20650;DHT22;10484;48.736;9.332;2023-04-16T07:15:15;8.60;1.00
20650;DHT22;10484;48.736;9.332;2023-04-16T07:17:40;8.50;1.00
20650;DHT22;10484;48.736;9.332;2023-04-16T07:20:07;8.50;1.00
20650;DHT22;10484;48.736;9.332;2023-04-16T07:22:33;8.60;1.00
20650;DHT22;10484;48.736;9.332;2023-04-16T07:24:58;8.60;1.00
20650;DHT22;10484;48.736;9.332;2023-04-16T07:27:24;8.60;1.00
20650;DHT22;10484;48.736;9.332;2023-04-16T07:29:49;8.60;1.00
20650;DHT22;10484;48.736;9.332;2023-04-16T07:32:15;8.60;1.00
20650;DHT22;10484;48.736;9.332;2023-04-16T07:34:41;8.60;1.00
20650;DHT22;10484;48.736;9.332;2023-04-16T07:37:07;8.60;1.00
20650;DHT22;10484;48.736;9.332;2023-04-16T07:39:32;8.60;1.00
20650;DHT22;10484;48.736;9.332;2023-04-16T07:41:58;8.50;1.00
20650;DHT22;10484;48.736;9.332;2023-04-16T07:44:23;8.50;1.00
20650;DHT22;10484;48.736;9.332;2023-04-16T07:46:49;8.60;1.00
20650;DHT22;10484;48.736;9.332;2023-04-16T07:49:15;8.50;1.00
20650;DHT22;10484;48.736;9.332;2023-04-16T07:51:40;8.50;1.00
20650;DHT22;10484;48.736;9.332;2023-04-16T07:54:06;8.60;1.00
20650;DHT22;10484;48.736;9.332;2023-04-16T07:56:31;8.60;1.00
20650;DHT22;10484;48.736;9.332;2023-04-16T07:58:57;8.50;1.00
20650;DHT22;10484;48.736;9.332;2023-04-16T08:01:22;8.60;1.00
20650;DHT22;10484;48.736;9.332;2023-04-16T08:03:48;8.60;1.00
20650;DHT22;10484;48.736;9.332;2023-04-16T08:06:14;8.60;1.00
20650;DHT22;10484;48.736;9.332;2023-04-16T08:08:40;8.60;1.00
20650;DHT22;10484;48.736;9.332;2023-04-16T08:11:05;8.60;1.00
20650;DHT22;10484;48.736;9.332;2023-04-16T08:13:31;8.60;1.00
20650;DHT22;10484;48.736;9.332;2023-04-16T08:15:57;8.60;1.00
20650;DHT22;10484;48.736;9.332;2023-04-16T08:18:22;8.60;1.00
20650;DHT22;10484;48.736;9.332;2023-04-16T08:20:48;8.60;1.00
20650;DHT22;10484;48.736;9.332;2023-04-16T08:23:13;8.60;1.00
20650;DHT22;10484;48.736;9.332;2023-04-16T08:25:39;8.60;1.00
20650;DHT22;10484;48.736;9.332;2023-04-16T08:28:05;8.60;1.00
20650;DHT22;10484;48.736;9.332;2023-04-16T08:30:30;8.60;1.00
20650;DHT22;10484;48.736;9.332;2023-04-16T08:32:56;8.70;1.00
20650;DHT22;10484;48.736;9.332;2023-04-16T08:35:22;8.70;1.00
20650;DHT22;10484;48.736;9.332;2023-04-16T08:37:48;8.70;1.00
20650;DHT22;10484;48.736;9.332;2023-04-16T08:40:13;8.70;1.00
20650;DHT22;10484;48.736;9.332;2023-04-16T08:42:52;8.70;1.00
20650;DHT22;10484;48.736;9.332;2023-04-16T08:45:18;8.80;1.00
20650;DHT22;10484;48.736;9.332;2023-04-16T08:47:49;8.70;1.00
20650;DHT22;10484;48.736;9.332;2023-04-16T08:50:18;8.70;1.00
20650;DHT22;10484;48.736;9.332;2023-04-16T08:53:03;8.80;1.00
20650;DHT22;10484;48.736;9.332;2023-04-16T08:58:18;8.70;1.00
20650;DHT22;10484;48.736;9.332;2023-04-16T09:00:46;8.70;1.00
20650;DHT22;10484;48.736;9.332;2023-04-16T09:03:12;8.70;1.00
20650;DHT22;10484;48.736;9.332;2023-04-16T09:05:38;8.70;1.00
20650;DHT22;10484;48.736;9.332;2023-04-16T09:08:05;8.80;1.00
20650;DHT22;10484;48.736;9.332;2023-04-16T09:10:31;8.80;1.00
20650;DHT22;10484;48.736;9.332;2023-04-16T09:12:57;8.80;1.00
20650;DHT22;10484;48.736;9.332;2023-04-16T09:15:23;8.80;1.00
20650;DHT22;10484;48.736;9.332;2023-04-16T09:17:50;8.80;1.00
20650;DHT22;10484;48.736;9.332;2023-04-16T09:20:17;8.90;1.00
20650;DHT22;10484;48.736;9.332;2023-04-16T09:22:43;8.90;1.00
20650;DHT22;10484;48.736;9.332;2023-04-16T09:25:09;8.90;1.00
20650;DHT22;10484;48.736;9.332;2023-04-16T09:27:35;8.90;1.00
20650;DHT22;10484;48.736;9.332;2023-04-16T09:30:24;8.90;1.00
20650;DHT22;10484;48.736;9.332;2023-04-16T09:32:51;9.00;1.00
20650;DHT22;10484;48.736;9.332;2023-04-16T09:35:18;9.00;1.00
20650;DHT22;10484;48.736;9.332;2023-04-16T09:37:54;9.00;1.00
20650;DHT22;10484;48.736;9.332;2023-04-16T09:40:24;9.00;1.00
20650;DHT22;10484;48.736;9.332;2023-04-16T09:42:51;9.00;1.00
20650;DHT22;10484;48.736;9.332;2023-04-16T09:45:16;9.00;1.00
20650;DHT22;10484;48.736;9.332;2023-04-16T09:47:44;9.00;1.00
20650;DHT22;10484;48.736;9.332;2023-04-16T09:50:14;9.00;1.00
20650;DHT22;10484;48.736;9.332;2023-04-16T09:52:42;9.10;1.00
20650;DHT22;10484;48.736;9.332;2023-04-16T09:55:09;9.00;1.00
20650;DHT22;10484;48.736;9.332;2023-04-16T09:57:36;9.00;1.00
20650;DHT22;10484;48.736;9.332;2023-04-16T10:00:06;9.00;1.00
20650;DHT22;10484;48.736;9.332;2023-04-16T10:02:34;9.00;1.00
20650;DHT22;10484;48.736;9.332;2023-04-16T10:05:01;9.00;1.00
20650;DHT22;10484;48.736;9.332;2023-04-16T10:07:34;9.10;1.00
20650;DHT22;10484;48.736;9.332;2023-04-16T10:10:00;9.10;1.00
20650;DHT22;10484;48.736;9.332;2023-04-16T10:12:26;9.10;1.00
20650;DHT22;10484;48.736;9.332;2023-04-16T10:14:53;9.10;1.00
20650;DHT22;10484;48.736;9.332;2023-04-16T10:17:18;9.10;1.00
20650;DHT22;10484;48.736;9.332;2023-04-16T10:19:45;9.10;1.00
20650;DHT22;10484;48.736;9.332;2023-04-16T10:22:11;9.20;1.00
20650;DHT22;10484;48.736;9.332;2023-04-16T10:24:37;9.20;1.00
20650;DHT22;10484;48.736;9.332;2023-04-16T10:27:03;9.20;1.00
20650;DHT22;10484;48.736;9.332;2023-04-16T10:29:30;9.20;1.00
20650;DHT22;10484;48.736;9.332;2023-04-16T10:31:56;9.20;1.00
20650;DHT22;10484;48.736;9.332;2023-04-16T10:34:23;9.20;1.00
20650;DHT22;10484;48.736;9.332;2023-04-16T10:36:51;9.20;1.00
20650;DHT22;10484;48.736;9.332;2023-04-16T10:39:22;9.30;1.00
20650;DHT22;10484;48.736;9.332;2023-04-16T10:41:48;9.30;1.00
20650;DHT22;10484;48.736;9.332;2023-04-16T10:44:17;9.20;1.00
20650;DHT22;10484;48.736;9.332;2023-04-16T10:46:45;9.20;1.00
20650;DHT22;10484;48.736;9.332;2023-04-16T10:49:18;9.30;1.00
20650;DHT22;10484;48.736;9.332;2023-04-16T10:52:02;9.30;1.00
20650;DHT22;10484;48.736;9.332;2023-04-16T10:54:34;9.30;1.00
20650;DHT22;10484;48.736;9.332;2023-04-16T10:57:08;9.30;1.00
20650;DHT22;10484;48.736;9.332;2023-04-16T10:59:36;9.30;1.00
20650;DHT22;10484;48.736;9.332;2023-04-16T11:02:12;9.30;1.00
20650;DHT22;10484;48.736;9.332;2023-04-16T11:04:41;9.40;1.00
20650;DHT22;10484;48.736;9.332;2023-04-16T11:12:20;9.40;1.00
20650;DHT22;10484;48.736;9.332;2023-04-16T11:15:07;9.40;1.00
20650;DHT22;10484;48.736;9.332;2023-04-16T11:17:46;9.40;1.00
20650;DHT22;10484;48.736;9.332;2023-04-16T11:20:21;9.40;1.00
20650;DHT22;10484;48.736;9.332;2023-04-16T11:22:48;9.40;1.00
20650;DHT22;10484;48.736;9.332;2023-04-16T11:25:19;9.40;1.00
20650;DHT22;10484;48.736;9.332;2023-04-16T11:27:45;9.50;1.00
20650;DHT22;10484;48.736;9.332;2023-04-16T11:30:11;9.50;1.00
20650;DHT22;10484;48.736;9.332;2023-04-16T11:32:38;9.50;1.00
20650;DHT22;10484;48.736;9.332;2023-04-16T11:35:12;9.50;1.00
20650;DHT22;10484;48.736;9.332;2023-04-16T11:37:38;9.50;1.00
20650;DHT22;10484;48.736;9.332;2023-04-16T11:40:05;9.50;1.00
20650;DHT22;10484;48.736;9.332;2023-04-16T11:42:32;9.50;1.00
20650;DHT22;10484;48.736;9.332;2023-04-16T11:44:58;9.50;1.00
20650;DHT22;10484;48.736;9.332;2023-04-16T11:47:29;9.60;1.00
20650;DHT22;10484;48.736;9.332;2023-04-16T11:49:56;9.60;1.00
20650;DHT22;10484;48.736;9.332;2023-04-16T11:54:54;9.60;1.00
20650;DHT22;10484;48.736;9.332;2023-04-16T11:57:28;9.50;1.00
20650;DHT22;10484;48.736;9.332;2023-04-16T11:59:58;9.50;1.00
20650;DHT22;10484;48.736;9.332;2023-04-16T12:02:37;9.50;1.00
20650;DHT22;10484;48.736;9.332;2023-04-16T12:05:05;9.50;1.00
20650;DHT22;10484;48.736;9.332;2023-04-16T12:07:41;9.50;1.00
20650;DHT22;10484;48.736;9.332;2023-04-16T12:10:08;9.60;1.00
20650;DHT22;10484;48.736;9.332;2023-04-16T12:12:34;9.60;1.00
20650;DHT22;10484;48.736;9.332;2023-04-16T12:15:03;9.60;1.00
20650;DHT22;10484;48.736;9.332;2023-04-16T12:17:32;9.60;1.00
20650;DHT22;10484;48.736;9.332;2023-04-16T12:19:59;9.70;1.00
20650;DHT22;10484;48.736;9.332;2023-04-16T12:22:33;9.70;1.00
20650;DHT22;10484;48.736;9.332;2023-04-16T12:25:04;9.70;1.00
20650;DHT22;10484;48.736;9.332;2023-04-16T12:27:53;9.70;1.00
20650;DHT22;10484;48.736;9.332;2023-04-16T12:30:21;9.70;1.00
20650;DHT22;10484;48.736;9.332;2023-04-16T12:32:48;9.70;1.00
20650;DHT22;10484;48.736;9.332;2023-04-16T12:35:32;9.70;1.00
20650;DHT22;10484;48.736;9.332;2023-04-16T12:37:58;9.80;1.00
20650;DHT22;10484;48.736;9.332;2023-04-16T12:40:24;9.80;1.00
20650;DHT22;10484;48.736;9.332;2023-04-16T12:42:49;9.80;1.00
20650;DHT22;10484;48.736;9.332;2023-04-16T12:45:15;9.90;1.00
20650;DHT22;10484;48.736;9.332;2023-04-16T12:47:41;9.90;1.00
20650;DHT22;10484;48.736;9.332;2023-04-16T12:50:06;9.90;1.00
20650;DHT22;10484;48.736;9.332;2023-04-16T12:52:33;9.80;1.00
20650;DHT22;10484;48.736;9.332;2023-04-16T12:55:00;9.80;1.00
20650;DHT22;10484;48.736;9.332;2023-04-16T12:57:26;9.80;1.00
20650;DHT22;10484;48.736;9.332;2023-04-16T12:59:56;9.80;1.00
20650;DHT22;10484;48.736;9.332;2023-04-16T13:02:23;9.80;1.00
20650;DHT22;10484;48.736;9.332;2023-04-16T13:04:50;9.80;1.00
20650;DHT22;10484;48.736;9.332;2023-04-16T13:07:16;9.80;1.00
20650;DHT22;10484;48.736;9.332;2023-04-16T13:09:42;9.90;1.00
20650;DHT22;10484;48.736;9.332;2023-04-16T13:12:08;9.80;1.00
20650;DHT22;10484;48.736;9.332;2023-04-16T13:14:33;9.80;1.00
20650;DHT22;10484;48.736;9.332;2023-04-16T13:16:59;9.80;1.00
20650;DHT22;10484;48.736;9.332;2023-04-16T13:19:25;9.90;1.00
20650;DHT22;10484;48.736;9.332;2023-04-16T13:21:51;9.90;1.00
20650;DHT22;10484;48.736;9.332;2023-04-16T13:24:17;9.90;1.00
20650;DHT22;10484;48.736;9.332;2023-04-16T13:26:43;9.90;1.00
20650;DHT22;10484;48.736;9.332;2023-04-16T13:29:09;9.90;1.00
20650;DHT22;10484;48.736;9.332;2023-04-16T13:31:35;9.90;1.00
20650;DHT22;10484;48.736;9.332;2023-04-16T13:34:00;9.90;1.00
20650;DHT22;10484;48.736;9.332;2023-04-16T13:36:27;10.00;1.00
20650;DHT22;10484;48.736;9.332;2023-04-16T13:38:54;10.00;1.00
20650;DHT22;10484;48.736;9.332;2023-04-16T13:41:20;10.00;1.00
20650;DHT22;10484;48.736;9.332;2023-04-16T13:43:45;10.00;1.00
20650;DHT22;10484;48.736;9.332;2023-04-16T13:46:11;9.90;1.00
20650;DHT22;10484;48.736;9.332;2023-04-16T13:48:36;10.00;1.00
20650;DHT22;10484;48.736;9.332;2023-04-16T13:51:02;10.00;1.00
20650;DHT22;10484;48.736;9.332;2023-04-16T13:53:28;10.00;1.00
20650;DHT22;10484;48.736;9.332;2023-04-16T13:55:54;10.00;1.00
20650;DHT22;10484;48.736;9.332;2023-04-16T13:58:19;10.00;1.00
20650;DHT22;10484;48.736;9.332;2023-04-16T14:00:45;10.00;1.00
20650;DHT22;10484;48.736;9.332;2023-04-16T14:03:11;10.00;1.00
20650;DHT22;10484;48.736;9.332;2023-04-16T14:05:36;10.00;1.00
20650;DHT22;10484;48.736;9.332;2023-04-16T14:08:02;10.00;1.00
20650;DHT22;10484;48.736;9.332;2023-04-16T14:10:27;10.00;1.00
20650;DHT22;10484;48.736;9.332;2023-04-16T14:12:53;10.00;1.00
20650;DHT22;10484;48.736;9.332;2023-04-16T14:15:19;9.90;1.00
20650;DHT22;10484;48.736;9.332;2023-04-16T14:17:45;9.90;1.00
20650;DHT22;10484;48.736;9.332;2023-04-16T14:20:12;9.90;1.00
20650;DHT22;10484;48.736;9.332;2023-04-16T14:22:37;10.00;1.00
20650;DHT22;10484;48.736;9.332;2023-04-16T14:25:04;10.00;1.00
20650;DHT22;10484;48.736;9.332;2023-04-16T14:27:31;10.00;1.00
20650;DHT22;10484;48.736;9.332;2023-04-16T14:29:57;10.00;1.00
20650;DHT22;10484;48.736;9.332;2023-04-16T14:32:22;10.00;1.00
20650;DHT22;10484;48.736;9.332;2023-04-16T14:34:48;9.90;1.00
20650;DHT22;10484;48.736;9.332;2023-04-16T14:37:16;10.00;1.00
20650;DHT22;10484;48.736;9.332;2023-04-16T14:39:42;10.00;1.00
20650;DHT22;10484;48.736;9.332;2023-04-16T14:42:07;10.00;1.00
20650;DHT22;10484;48.736;9.332;2023-04-16T14:44:33;10.00;1.00
20650;DHT22;10484;48.736;9.332;2023-04-16T14:46:58;10.00;1.00
20650;DHT22;10484;48.736;9.332;2023-04-16T14:49:24;10.00;1.00
20650;DHT22;10484;48.736;9.332;2023-04-16T14:51:50;10.00;1.00
20650;DHT22;10484;48.736;9.332;2023-04-16T14:54:19;10.00;1.00
20650;DHT22;10484;48.736;9.332;2023-04-16T14:56:45;10.00;1.00
20650;DHT22;10484;48.736;9.332;2023-04-16T14:59:11;10.00;1.00
20650;DHT22;10484;48.736;9.332;2023-04-16T15:01:37;10.00;1.00
20650;DHT22;10484;48.736;9.332;2023-04-16T15:04:06;10.00;1.00
20650;DHT22;10484;48.736;9.332;2023-04-16T15:06:32;10.00;1.00
20650;DHT22;10484;48.736;9.332;2023-04-16T15:08:58;10.00;1.00
20650;DHT22;10484;48.736;9.332;2023-04-16T15:11:24;10.00;1.00
20650;DHT22;10484;48.736;9.332;2023-04-16T15:13:50;9.90;1.00
20650;DHT22;10484;48.736;9.332;2023-04-16T15:16:16;9.90;1.00
20650;DHT22;10484;48.736;9.332;2023-04-16T15:18:41;9.90;1.00
20650;DHT22;10484;48.736;9.332;2023-04-16T15:21:07;10.00;1.00
20650;DHT22;10484;48.736;9.332;2023-04-16T15:23:33;10.00;1.00
20650;DHT22;10484;48.736;9.332;2023-04-16T15:25:58;10.00;1.00
20650;DHT22;10484;48.736;9.332;2023-04-16T15:28:24;10.00;1.00
20650;DHT22;10484;48.736;9.332;2023-04-16T15:30:50;10.00;1.00
20650;DHT22;10484;48.736;9.332;2023-04-16T15:33:16;10.00;1.00
20650;DHT22;10484;48.736;9.332;2023-04-16T15:35:42;10.00;1.00
20650;DHT22;10484;48.736;9.332;2023-04-16T15:38:08;10.00;1.00
20650;DHT22;10484;48.736;9.332;2023-04-16T15:40:34;10.00;1.00
20650;DHT22;10484;48.736;9.332;2023-04-16T15:43:00;10.00;1.00
20650;DHT22;10484;48.736;9.332;2023-04-16T15:45:26;10.00;1.00
20650;DHT22;10484;48.736;9.332;2023-04-16T15:47:52;10.00;1.00
20650;DHT22;10484;48.736;9.332;2023-04-16T15:50:18;10.00;1.00
20650;DHT22;10484;48.736;9.332;2023-04-16T15:52:47;9.90;1.00
20650;DHT22;10484;48.736;9.332;2023-04-16T15:55:14;9.90;1.00
20650;DHT22;10484;48.736;9.332;2023-04-16T15:57:40;9.90;1.00
20650;DHT22;10484;48.736;9.332;2023-04-16T16:00:07;9.90;1.00
20650;DHT22;10484;48.736;9.332;2023-04-16T16:02:40;9.90;1.00
20650;DHT22;10484;48.736;9.332;2023-04-16T16:05:08;9.90;1.00
20650;DHT22;10484;48.736;9.332;2023-04-16T16:07:34;9.90;1.00